createdAt,value
2018-01-15T00:00:17.883Z,96315.91
2018-01-15T00:02:46.393Z,96333.25
2018-01-15T00:05:14.030Z,96326.55
2018-01-15T00:07:42.300Z,96316.80
2018-01-15T00:10:09.900Z,96316.05
2018-01-15T00:12:38.096Z,96316.88
2018-01-15T00:15:05.816Z,96319.37
2018-01-15T00:17:33.688Z,96310.78
2018-01-15T00:20:01.457Z,96322.53
2018-01-15T00:22:33.943Z,96325.93
2018-01-15T00:25:01.566Z,96332.14
2018-01-15T00:27:29.135Z,96333.74
2018-01-15T00:29:56.815Z,96333.59
2018-01-15T00:32:24.526Z,96326.99
2018-01-15T00:34:52.288Z,96344.37
2018-01-15T00:37:20.081Z,96335.84
2018-01-15T00:39:47.814Z,96327.56
2018-01-15T00:42:15.493Z,96332.17
2018-01-15T00:44:43.298Z,96332.77
2018-01-15T00:47:11.368Z,96346.31
2018-01-15T00:49:39.414Z,96332.36
2018-01-15T00:52:07.246Z,96326.59
2018-01-15T00:54:35.303Z,96328.38
2018-01-15T00:57:04.051Z,96339.67
2018-01-15T00:59:32.259Z,96335.23
2018-01-15T01:02:00.392Z,96336.44
2018-01-15T01:04:28.248Z,96335.86
2018-01-15T01:06:57.681Z,96333.50
2018-01-15T01:09:25.598Z,96343.22
2018-01-15T01:11:53.215Z,96345.11
2018-01-15T01:14:20.843Z,96339.42
2018-01-15T01:16:48.556Z,96351.77
2018-01-15T01:19:16.136Z,96345.28
2018-01-15T01:21:44.695Z,96356.44
2018-01-15T01:24:12.658Z,96338.95
2018-01-15T01:26:40.213Z,96333.00
2018-01-15T01:29:07.827Z,96335.12
2018-01-15T01:31:35.502Z,96323.78
2018-01-15T01:34:03.097Z,96331.50
2018-01-15T01:36:33.599Z,96313.50
2018-01-15T01:39:04.456Z,96316.38
2018-01-15T01:41:35.717Z,96326.52
2018-01-15T01:44:11.379Z,96315.09
2018-01-15T01:46:39.456Z,96309.86
2018-01-15T01:49:10.007Z,96294.98
2018-01-15T01:51:40.035Z,96297.86
2018-01-15T01:54:07.769Z,96304.45
2018-01-15T01:56:35.434Z,96297.05
2018-01-15T01:59:03.233Z,96292.84
2018-01-15T02:01:30.947Z,96259.09
2018-01-15T02:03:58.543Z,96291.48
2018-01-15T02:06:26.222Z,96286.19
2018-01-15T02:08:53.951Z,96288.78
2018-01-15T02:11:21.697Z,96292.91
2018-01-15T02:13:49.388Z,96282.90
2018-01-15T02:16:17.173Z,96298.39
2018-01-15T02:18:44.809Z,96281.70
2018-01-15T02:21:12.478Z,96284.94
2018-01-15T02:23:40.164Z,96279.30
2018-01-15T02:26:07.975Z,96274.93
2018-01-15T02:28:35.652Z,96278.88
2018-01-15T02:31:03.366Z,96268.48
2018-01-15T02:33:30.964Z,96275.33
2018-01-15T02:35:58.767Z,96286.58
2018-01-15T02:38:26.467Z,96285.09
2018-01-15T02:40:55.032Z,96280.38
2018-01-15T02:43:22.592Z,96241.88
2018-01-15T02:45:50.570Z,96289.13
2018-01-15T02:48:18.117Z,96297.22
2018-01-15T02:50:45.986Z,96282.03
2018-01-15T02:53:13.657Z,96276.17
2018-01-15T02:55:41.276Z,96284.42
2018-01-15T02:58:09.057Z,96288.73
2018-01-15T03:00:36.760Z,96289.63
2018-01-15T03:03:04.316Z,96276.64
2018-01-15T03:05:32.627Z,96298.42
2018-01-15T03:08:00.312Z,96283.48
2018-01-15T03:10:27.854Z,96286.08
2018-01-15T03:12:55.397Z,96276.98
2018-01-15T03:15:23.457Z,96269.75
2018-01-15T03:17:51.058Z,96282.70
2018-01-15T03:20:18.607Z,96269.05
2018-01-15T03:22:46.757Z,96283.61
2018-01-15T03:25:14.321Z,96290.72
2018-01-15T03:27:42.113Z,96272.73
2018-01-15T03:30:09.855Z,96296.59
2018-01-15T03:32:37.443Z,96278.17
2018-01-15T03:35:05.007Z,96286.47
2018-01-15T03:37:32.649Z,96281.58
2018-01-15T03:40:00.251Z,96280.01
2018-01-15T03:42:28.405Z,96293.12
2018-01-15T03:44:56.081Z,96274.28
2018-01-15T03:47:23.963Z,96270.80
2018-01-15T03:49:51.601Z,96278.47
2018-01-15T03:52:19.293Z,96270.25
2018-01-15T03:54:46.896Z,96288.55
2018-01-15T03:57:14.728Z,96286.12
2018-01-15T03:59:42.402Z,96291.41
2018-01-15T04:02:10.105Z,96276.02
2018-01-15T04:04:37.629Z,96297.31
2018-01-15T04:07:05.200Z,96296.53
2018-01-15T04:09:33.771Z,96291.99
2018-01-15T04:12:01.456Z,96301.34
2018-01-15T04:14:29.279Z,96292.92
2018-01-15T04:16:56.956Z,96311.50
2018-01-15T04:19:24.510Z,96297.65
2018-01-15T04:21:52.411Z,96315.79
2018-01-15T04:24:20.077Z,96295.48
2018-01-15T04:26:47.662Z,96306.69
2018-01-15T04:29:15.224Z,96273.65
2018-01-15T04:31:43.017Z,96306.67
2018-01-15T04:34:10.620Z,96301.79
2018-01-15T04:36:38.396Z,96312.36
2018-01-15T04:39:06.093Z,96307.81
2018-01-15T04:41:33.693Z,96296.37
2018-01-15T04:44:01.311Z,96312.09
2018-01-15T04:46:28.985Z,96321.64
2018-01-15T04:48:57.061Z,96311.37
2018-01-15T04:51:24.591Z,96304.17
2018-01-15T04:53:52.272Z,96301.04
2018-01-15T04:56:19.837Z,96321.41
2018-01-15T04:58:47.391Z,96310.77
2018-01-15T05:01:15.148Z,96302.45
2018-01-15T05:03:42.951Z,96299.13
2018-01-15T05:06:10.612Z,96290.43
2018-01-15T05:08:38.298Z,96291.34
2018-01-15T05:11:06.071Z,96300.27
2018-01-15T05:13:33.853Z,96309.53
2018-01-15T05:16:01.584Z,96318.24
2018-01-15T05:18:29.645Z,96316.09
2018-01-15T05:20:57.492Z,96323.98
2018-01-15T05:23:25.512Z,96321.22
2018-01-15T05:25:54.196Z,96314.63
2018-01-15T05:28:22.114Z,96322.61
2018-01-15T05:30:49.864Z,96322.22
2018-01-15T05:33:17.443Z,96323.09
2018-01-15T05:35:45.007Z,96320.73
2018-01-15T05:38:13.129Z,96317.91
2018-01-15T05:40:40.693Z,96316.59
2018-01-15T05:43:09.142Z,96323.77
2018-01-15T05:45:37.458Z,96325.44
2018-01-15T05:48:05.234Z,96330.77
2018-01-15T05:50:32.865Z,96329.06
2018-01-15T05:53:01.450Z,96333.54
2018-01-15T05:55:29.050Z,96340.70
2018-01-15T05:57:57.504Z,96351.61
2018-01-15T06:00:25.209Z,96345.50
2018-01-15T06:02:54.500Z,96333.52
2018-01-15T06:05:22.607Z,96350.75
2018-01-15T06:07:50.595Z,96344.03
2018-01-15T06:10:18.259Z,96337.45
2018-01-15T06:12:46.174Z,96339.11
2018-01-15T06:15:13.880Z,96341.09
2018-01-15T06:17:42.378Z,96357.19
2018-01-15T06:20:09.959Z,96341.97
2018-01-15T06:22:37.703Z,96343.67
2018-01-15T06:25:05.786Z,96345.22
2018-01-15T06:27:33.342Z,96348.55
2018-01-15T06:30:01.062Z,96334.72
2018-01-15T06:32:28.802Z,96346.59
2018-01-15T06:34:56.425Z,96350.70
2018-01-15T06:37:24.128Z,96346.20
2018-01-15T06:39:51.828Z,96344.23
2018-01-15T06:42:19.364Z,96345.86
2018-01-15T06:44:47.165Z,96355.04
2018-01-15T06:47:14.822Z,96364.01
2018-01-15T06:49:42.831Z,96363.80
2018-01-15T06:52:10.395Z,96358.39
2018-01-15T06:54:38.064Z,96360.45
2018-01-15T06:57:05.646Z,96365.81
2018-01-15T06:59:33.244Z,96374.50
2018-01-15T07:02:00.913Z,96377.95
2018-01-15T07:04:28.537Z,96380.20
2018-01-15T07:06:56.138Z,96380.70
2018-01-15T07:09:23.810Z,96372.94
2018-01-15T07:11:51.342Z,96371.80
2018-01-15T07:14:18.921Z,96375.64
2018-01-15T07:16:46.594Z,96378.23
2018-01-15T07:19:14.199Z,96387.08
2018-01-15T07:21:42.523Z,96390.14
2018-01-15T07:24:10.234Z,96382.95
2018-01-15T07:26:37.836Z,96368.56
2018-01-15T07:29:05.597Z,96375.77
2018-01-15T07:31:33.335Z,96377.20
2018-01-15T07:34:00.939Z,96382.47
2018-01-15T07:36:41.222Z,96380.66
2018-01-15T07:39:11.681Z,96373.27
2018-01-15T07:41:39.565Z,96377.44
2018-01-15T07:44:10.899Z,96383.80
2018-01-15T07:46:38.453Z,96385.50
2018-01-15T07:49:06.130Z,96393.59
2018-01-15T07:51:33.840Z,96391.97
2018-01-15T07:54:01.439Z,96394.47
2018-01-15T07:56:29.114Z,96385.50
2018-01-15T07:58:56.732Z,96390.71
2018-01-15T08:01:24.856Z,96394.72
2018-01-15T08:03:53.061Z,96387.30
2018-01-15T08:06:20.859Z,96391.92
2018-01-15T08:08:49.941Z,96402.44
2018-01-15T08:11:17.543Z,96408.77
2018-01-15T08:13:45.280Z,96398.84
2018-01-15T08:16:12.982Z,96391.20
2018-01-15T08:18:40.590Z,96392.55
2018-01-15T08:21:08.292Z,96391.30
2018-01-15T08:23:35.983Z,96393.04
2018-01-15T08:26:03.823Z,96394.80
2018-01-15T08:28:31.904Z,96396.80
2018-01-15T08:31:00.931Z,96397.77
2018-01-15T08:33:28.593Z,96393.28
2018-01-15T08:35:56.605Z,96389.27
2018-01-15T08:38:24.345Z,96383.92
2018-01-15T08:40:52.177Z,96402.91
2018-01-15T08:43:19.782Z,96380.66
2018-01-15T08:45:47.501Z,96379.55
2018-01-15T08:48:15.214Z,96400.34
2018-01-15T08:50:42.861Z,96389.06
2018-01-15T08:53:11.104Z,96392.52
2018-01-15T08:55:39.533Z,96395.02
2018-01-15T08:58:07.324Z,96387.79
2018-01-15T09:00:35.951Z,96384.78
2018-01-15T09:03:04.414Z,96379.05
2018-01-15T09:05:33.065Z,96390.14
2018-01-15T09:08:00.776Z,96381.86
2018-01-15T09:10:28.383Z,96392.66
2018-01-15T09:12:55.992Z,96390.28
2018-01-15T09:15:24.137Z,96389.80
2018-01-15T09:17:51.744Z,96377.15
2018-01-15T09:20:19.485Z,96382.05
2018-01-15T09:22:47.196Z,96384.94
2018-01-15T09:25:14.760Z,96373.02
2018-01-15T09:27:42.309Z,96376.42
2018-01-15T09:30:15.132Z,96379.44
2018-01-15T09:32:43.214Z,96372.70
2018-01-15T09:35:13.507Z,96369.70
2018-01-15T09:37:44.707Z,96361.65
2018-01-15T09:40:13.672Z,96363.33
2018-01-15T09:46:13.119Z,96365.05
2018-01-15T09:48:41.672Z,96356.41
2018-01-15T09:51:11.805Z,96352.46
2018-01-15T09:53:40.400Z,96352.44
2018-01-15T09:56:14.611Z,96350.77
2018-01-15T09:58:42.892Z,96346.75
2018-01-15T10:01:11.929Z,96339.11
2018-01-15T10:03:41.846Z,96337.41
2018-01-15T10:06:13.729Z,96331.41
2018-01-15T10:08:43.839Z,96336.69
2018-01-15T10:11:15.473Z,96339.05
2018-01-15T10:13:46.463Z,96345.45
2018-01-15T10:16:16.895Z,96338.34
2018-01-15T10:18:45.076Z,96329.64
2018-01-15T10:21:14.190Z,96324.33
2018-01-15T10:23:42.881Z,96341.33
2018-01-15T10:26:10.852Z,96327.87
2018-01-15T10:28:38.464Z,96318.02
2018-01-15T10:31:06.171Z,96324.05
2018-01-15T10:33:33.817Z,96313.11
2018-01-15T10:36:01.414Z,96312.75
2018-01-15T10:38:29.344Z,96310.93
2018-01-15T10:40:56.914Z,96306.28
2018-01-15T10:43:24.754Z,96315.77
2018-01-15T10:45:52.583Z,96300.50
2018-01-15T10:48:20.782Z,96310.58
2018-01-15T10:50:48.439Z,96296.39
2018-01-15T10:53:16.156Z,96304.11
2018-01-15T10:55:44.111Z,96297.39
2018-01-15T10:58:11.720Z,96293.05
2018-01-15T11:00:45.186Z,96283.58
2018-01-15T11:03:12.816Z,96293.04
2018-01-15T11:05:40.772Z,96290.53
2018-01-15T11:08:08.998Z,96282.03
2018-01-15T11:10:37.432Z,96280.13
2018-01-15T11:13:05.090Z,96277.42
2018-01-15T11:15:33.035Z,96270.67
2018-01-15T11:18:00.680Z,96249.01
2018-01-15T11:20:28.584Z,96259.48
2018-01-15T11:22:57.214Z,96252.95
2018-01-15T11:25:25.270Z,96259.08
2018-01-15T11:27:53.892Z,96264.35
2018-01-15T11:30:21.666Z,96247.54
2018-01-15T11:32:50.672Z,96260.99
2018-01-15T11:35:18.432Z,96244.14
2018-01-15T11:37:46.435Z,96239.50
2018-01-15T11:40:14.106Z,96234.05
2018-01-15T11:42:41.786Z,96234.45
2018-01-15T11:45:10.025Z,96229.78
2018-01-15T11:47:37.837Z,96234.34
2018-01-15T11:50:05.693Z,96223.22
2018-01-15T11:52:34.257Z,96219.98
2018-01-15T11:55:01.961Z,96213.55
2018-01-15T11:57:29.645Z,96226.05
2018-01-15T11:59:58.058Z,96225.87
2018-01-15T12:02:25.773Z,96225.91
2018-01-15T12:04:53.435Z,96221.71
2018-01-15T12:07:21.278Z,96218.72
2018-01-15T12:09:49.172Z,96215.86
2018-01-15T12:12:16.814Z,96215.28
2018-01-15T12:14:44.510Z,96205.83
2018-01-15T12:17:12.253Z,96207.93
2018-01-15T12:19:39.906Z,96207.08
2018-01-15T12:22:08.172Z,96200.17
2018-01-15T12:24:35.927Z,96177.35
2018-01-15T12:27:03.585Z,96199.00
2018-01-15T12:29:31.895Z,96189.47
2018-01-15T12:31:59.624Z,96193.77
2018-01-15T12:34:27.951Z,96173.93
2018-01-15T12:36:55.866Z,96174.92
2018-01-15T12:39:23.601Z,96190.39
2018-01-15T12:41:51.814Z,96180.34
2018-01-15T12:47:15.451Z,96191.16
2018-01-15T12:49:43.275Z,96201.55
2018-01-15T12:52:10.964Z,96184.33
2018-01-15T12:54:38.642Z,96184.04
2018-01-15T12:57:06.503Z,96175.58
2018-01-15T12:59:34.149Z,96180.06
2018-01-15T13:02:02.057Z,96170.96
2018-01-15T13:04:40.031Z,96169.15
2018-01-15T13:07:19.556Z,96176.13
2018-01-15T13:09:47.233Z,96161.53
2018-01-15T13:12:14.917Z,96173.59
2018-01-15T13:14:42.650Z,96167.45
2018-01-15T13:17:11.237Z,96143.43
2018-01-15T13:19:39.165Z,96152.16
2018-01-15T13:22:06.902Z,96164.00
2018-01-15T13:24:34.674Z,96158.80
2018-01-15T13:27:02.908Z,96143.95
2018-01-15T13:29:30.684Z,96157.03
2018-01-15T13:31:58.405Z,96147.48
2018-01-15T13:34:26.117Z,96151.45
2018-01-15T13:36:53.902Z,96146.46
2018-01-15T13:39:21.712Z,96134.75
2018-01-15T13:41:50.627Z,96134.56
2018-01-15T13:44:19.489Z,96142.30
2018-01-15T13:46:47.265Z,96124.13
2018-01-15T13:49:15.488Z,96122.78
2018-01-15T13:51:43.152Z,96128.02
2018-01-15T13:56:49.426Z,96126.63
2018-01-15T13:59:17.180Z,96119.45
2018-01-15T14:01:44.888Z,96111.27
2018-01-15T14:04:13.701Z,96120.22
2018-01-15T14:06:41.400Z,96122.57
2018-01-15T14:09:09.227Z,96115.63
2018-01-15T14:11:36.992Z,96112.42
2018-01-15T14:14:04.858Z,96112.86
2018-01-15T14:16:33.953Z,96113.36
2018-01-15T14:19:02.996Z,96117.98
2018-01-15T14:21:37.955Z,96120.41
2018-01-15T14:24:07.247Z,96129.81
2018-01-15T14:26:35.664Z,96128.22
2018-01-15T14:29:03.851Z,96109.70
2018-01-15T14:31:32.635Z,96103.23
2018-01-15T14:34:00.371Z,96112.02
2018-01-15T14:36:28.143Z,96109.18
2018-01-15T14:38:56.414Z,96088.72
2018-01-15T14:41:25.738Z,96103.59
2018-01-15T14:43:53.371Z,96101.13
2018-01-15T14:46:21.178Z,96112.48
2018-01-15T14:48:48.814Z,96107.61
2018-01-15T14:51:16.487Z,96099.61
2018-01-15T14:53:48.591Z,96098.36
2018-01-15T14:56:16.365Z,96107.97
2018-01-15T14:59:02.772Z,96105.62
2018-01-15T15:01:33.494Z,96104.33
2018-01-15T15:04:02.630Z,96094.23
2018-01-15T15:06:36.098Z,96084.08
2018-01-15T15:09:04.998Z,96091.23
2018-01-15T15:11:33.106Z,96091.05
2018-01-15T15:14:03.641Z,96088.42
2018-01-15T15:16:32.975Z,96072.91
2018-01-15T15:19:00.982Z,96072.92
2018-01-15T15:21:29.574Z,96077.23
2018-01-15T15:23:57.244Z,96075.21
2018-01-15T15:26:25.021Z,96071.38
2018-01-15T15:28:53.205Z,96077.56
2018-01-15T15:31:21.013Z,96080.79
2018-01-15T15:33:49.469Z,96073.95
2018-01-15T15:36:17.227Z,96066.23
2018-01-15T15:38:44.930Z,96062.42
2018-01-15T15:42:03.306Z,96069.02
2018-01-15T15:45:01.428Z,96060.52
2018-01-15T15:47:29.003Z,96068.02
2018-01-15T15:49:56.819Z,96063.91
2018-01-15T15:52:24.562Z,96060.11
2018-01-15T15:54:52.340Z,96079.15
2018-01-15T15:57:22.019Z,96067.15
2018-01-15T15:59:50.685Z,96070.61
2018-01-15T16:02:18.486Z,96065.27
2018-01-15T16:04:46.095Z,96067.47
2018-01-15T16:07:13.742Z,96065.83
2018-01-15T16:09:42.337Z,96057.25
2018-01-15T16:12:09.948Z,96054.99
2018-01-15T16:14:38.317Z,96050.66
2018-01-15T16:17:06.028Z,96055.56
2018-01-15T16:19:33.959Z,96043.40
2018-01-15T16:22:13.470Z,96045.89
2018-01-15T16:24:41.531Z,96030.02
2018-01-15T16:27:09.343Z,96032.48
2018-01-15T16:29:37.142Z,96032.69
2018-01-15T16:32:04.853Z,96042.83
2018-01-15T16:34:32.553Z,96049.70
2018-01-15T16:37:00.593Z,96048.59
2018-01-15T16:39:28.298Z,96040.72
2018-01-15T16:41:55.971Z,96038.28
2018-01-15T16:44:23.582Z,96045.17
2018-01-15T16:46:51.320Z,96051.84
2018-01-15T16:49:18.984Z,96044.59
2018-01-15T16:51:46.574Z,96045.03
2018-01-15T16:54:14.256Z,96043.16
2018-01-15T16:56:42.303Z,96041.64
2018-01-15T17:01:37.868Z,96016.84
2018-01-15T17:04:05.608Z,96019.53
2018-01-15T17:06:33.396Z,96018.97
2018-01-15T17:09:01.168Z,96022.73
2018-01-15T17:11:28.730Z,96011.81
2018-01-15T17:13:56.556Z,96033.05
2018-01-15T17:16:24.293Z,96007.71
2018-01-15T17:18:52.292Z,95998.52
2018-01-15T17:21:21.016Z,96003.01
2018-01-15T17:23:48.705Z,96000.17
2018-01-15T17:26:16.495Z,95985.42
2018-01-15T17:28:44.187Z,95999.75
2018-01-15T17:31:12.682Z,96005.65
2018-01-15T17:33:40.322Z,95992.31
2018-01-15T17:36:08.047Z,95995.33
2018-01-15T17:38:36.345Z,96005.46
2018-01-15T17:41:04.184Z,96005.91
2018-01-15T17:43:32.494Z,96001.95
2018-01-15T17:46:00.218Z,96014.13
2018-01-15T17:48:27.860Z,96000.81
2018-01-15T17:50:55.410Z,95990.87
2018-01-15T17:53:23.134Z,95996.41
2018-01-15T17:55:51.467Z,95989.55
2018-01-15T17:58:19.119Z,95992.80
2018-01-15T18:00:47.128Z,96016.00
2018-01-15T18:03:15.272Z,95972.88
2018-01-15T18:05:42.924Z,95979.95
2018-01-15T18:08:10.717Z,95971.73
2018-01-15T18:10:38.985Z,95973.34
2018-01-15T18:13:06.570Z,95948.30
2018-01-15T18:15:34.324Z,95979.05
2018-01-15T18:18:02.717Z,95971.27
2018-01-15T18:20:31.252Z,95989.12
2018-01-15T18:22:58.986Z,95980.67
2018-01-15T18:25:26.701Z,95974.31
2018-01-15T18:27:55.275Z,95981.61
2018-01-15T18:30:23.398Z,95968.97
2018-01-15T18:32:51.142Z,95961.29
2018-01-15T18:35:24.010Z,95962.61
2018-01-15T18:37:55.428Z,95951.00
2018-01-15T18:40:32.836Z,95947.41
2018-01-15T18:43:06.569Z,95933.95
2018-01-15T18:45:34.241Z,95952.08
2018-01-15T18:48:03.186Z,95905.31
2018-01-15T18:50:31.025Z,95944.20
2018-01-15T18:53:02.637Z,95942.25
2018-01-15T18:55:30.362Z,95950.38
2018-01-15T18:58:16.295Z,95945.56
2018-01-15T19:00:44.073Z,95933.94
2018-01-15T19:03:11.657Z,95937.83
2018-01-15T19:05:39.517Z,95937.69
2018-01-15T19:08:07.317Z,95938.80
2018-01-15T19:10:34.916Z,95930.27
2018-01-15T19:13:02.496Z,95927.86
2018-01-15T19:15:30.221Z,95937.95
2018-01-15T19:17:58.142Z,95955.90
2018-01-15T19:20:26.237Z,95948.32
2018-01-15T19:22:53.972Z,95935.67
2018-01-15T19:25:21.659Z,95934.12
2018-01-15T19:27:49.408Z,95924.27
2018-01-15T19:30:17.381Z,95927.44
2018-01-15T19:32:45.465Z,95930.45
2018-01-15T19:35:16.035Z,95932.07
2018-01-15T19:37:47.857Z,95936.47
2018-01-15T19:40:15.457Z,95922.39
2018-01-15T19:42:43.971Z,95916.36
2018-01-15T19:45:17.138Z,95923.84
2018-01-15T19:47:51.454Z,95934.78
2018-01-15T19:50:28.822Z,95945.34
2018-01-15T19:53:02.033Z,95947.89
2018-01-15T19:55:35.543Z,95936.45
2018-01-15T19:58:09.522Z,95930.75
2018-01-15T20:00:42.846Z,95941.00
2018-01-15T20:03:16.088Z,95943.16
2018-01-15T20:05:49.463Z,95951.58
2018-01-15T20:08:22.483Z,95959.73
2018-01-15T20:10:52.635Z,95964.38
2018-01-15T20:13:20.262Z,95956.33
2018-01-15T20:15:48.710Z,95947.84
2018-01-15T20:18:17.337Z,95944.48
2018-01-15T20:20:44.936Z,95936.48
2018-01-15T20:23:12.521Z,95931.08
2018-01-15T20:25:40.337Z,95927.52
2018-01-15T20:28:08.680Z,95916.31
2018-01-15T20:30:36.403Z,95916.63
2018-01-15T20:33:03.942Z,95906.31
2018-01-15T20:35:31.511Z,95912.12
2018-01-15T20:37:59.205Z,95926.36
2018-01-15T20:40:27.085Z,95916.30
2018-01-15T20:42:54.905Z,95907.78
2018-01-15T20:45:22.599Z,95906.69
2018-01-15T20:47:50.169Z,95907.98
2018-01-15T20:50:17.775Z,95897.58
2018-01-15T20:52:45.461Z,95898.54
2018-01-15T20:55:13.249Z,95906.22
2018-01-15T20:57:40.805Z,95909.09
2018-01-15T21:00:11.058Z,95913.00
2018-01-15T21:02:39.595Z,95894.96
2018-01-15T21:05:07.175Z,95898.98
2018-01-15T21:07:35.216Z,95881.91
2018-01-15T21:10:03.688Z,95901.27
2018-01-15T21:12:31.282Z,95902.32
2018-01-15T21:14:58.956Z,95916.39
2018-01-15T21:17:26.542Z,95913.56
2018-01-15T21:19:54.103Z,95918.34
2018-01-15T21:22:21.779Z,95913.74
2018-01-15T21:24:49.405Z,95914.09
2018-01-15T21:27:17.001Z,95898.72
2018-01-15T21:29:44.709Z,95900.95
2018-01-15T21:32:13.238Z,95902.77
2018-01-15T21:34:41.671Z,95893.72
2018-01-15T21:37:09.494Z,95879.75
2018-01-15T21:39:37.204Z,95883.03
2018-01-15T21:42:04.811Z,95866.86
2018-01-15T21:44:32.357Z,95868.66
2018-01-15T21:47:00.042Z,95875.61
2018-01-15T21:49:27.843Z,95871.88
2018-01-15T21:51:55.435Z,95874.32
2018-01-15T21:54:23.158Z,95863.30
2018-01-15T21:56:50.805Z,95855.34
2018-01-15T21:59:18.382Z,95864.80
2018-01-15T22:01:46.115Z,95862.03
2018-01-15T22:04:13.671Z,95876.59
2018-01-15T22:06:41.503Z,95862.34
2018-01-15T22:09:09.210Z,95868.77
2018-01-15T22:11:36.779Z,95862.45
2018-01-15T22:14:04.726Z,95862.73
2018-01-15T22:16:32.406Z,95865.53
2018-01-15T22:19:00.007Z,95851.61
2018-01-15T22:21:27.853Z,95829.30
2018-01-15T22:23:55.787Z,95834.56
2018-01-15T22:26:23.567Z,95844.91
2018-01-15T22:28:51.178Z,95841.89
2018-01-15T22:31:18.910Z,95836.32
2018-01-15T22:33:47.662Z,95827.75
2018-01-15T22:36:17.250Z,95813.09
2018-01-15T22:38:50.066Z,95826.43
2018-01-15T22:41:17.680Z,95809.83
2018-01-15T22:43:45.833Z,95819.90
2018-01-15T22:46:14.006Z,95807.39
2018-01-15T22:48:42.477Z,95804.69
2018-01-15T22:58:50.943Z,95788.59
2018-01-15T23:01:20.616Z,95796.89
2018-01-15T23:03:48.211Z,95768.73
2018-01-15T23:06:15.787Z,95752.71
2018-01-15T23:08:43.465Z,95754.20
2018-01-15T23:11:11.057Z,95762.83
2018-01-15T23:13:38.607Z,95748.20
2018-01-15T23:16:06.305Z,95747.22
2018-01-15T23:18:33.901Z,95753.61
2018-01-15T23:21:01.985Z,95760.48
2018-01-15T23:23:29.662Z,95753.02
2018-01-15T23:25:57.201Z,95753.13
2018-01-15T23:28:25.429Z,95739.52
2018-01-15T23:30:53.133Z,95738.25
2018-01-15T23:33:20.707Z,95738.77
2018-01-15T23:35:48.360Z,95748.23
2018-01-15T23:38:16.057Z,95751.95
2018-01-15T23:40:43.640Z,95741.20
2018-01-15T23:43:11.275Z,95744.47
2018-01-15T23:45:38.984Z,95742.30
2018-01-15T23:48:06.867Z,95741.50
2018-01-15T23:50:35.213Z,95735.97
2018-01-15T23:53:02.875Z,95729.12
2018-01-15T23:55:30.492Z,95724.34
2018-01-15T23:57:58.288Z,95724.86
